Kacug, Russia
Current Conditions -  °F | °C
As of 9:30 AM on Tuesday 25 Nov 2014 (Local Time) from UIII Reporting Station
Blowing Snow Blowing Snow  
Wind Chill: -8°   Ceiling: 500
Heat Index: 12°   Visibility: 0.28mi
Dew Point:   Wind: 27mph
Humidity: 85%   Direction: 310°NW
Pressure: 29.59"   Gusts: 38mph
Location:  53.97°N, 105.9°E
Report Text: UIII 250130Z 31012G17MPS 0450 R30/0450N +SHSN BLSN VV005M11/M13 Q1002 TEMPO 32016G21MPS 0300 +SHSN BLSN VV001 RMK QBB150QFE707/0943 30450345
Loading
Personal Weather Stations






























Interactive Weather Map New forecast layout! Learn more

10-Day Weather Forecast

Advertisements
Track Severe Weather on mobile